sensor_id;sensor_type;location;lat;lon;timestamp;pressure;altitude;pressure_sealevel;temperature;humidity
69848;BME280;57143;55.940;37.496;2022-12-19T00:01:08;99354.69;;;-9.50;100.00
69848;BME280;57143;55.940;37.496;2022-12-19T00:03:42;99360.25;;;-9.55;100.00
69848;BME280;57143;55.940;37.496;2022-12-19T00:06:10;99335.81;;;-9.55;100.00
69848;BME280;57143;55.940;37.496;2022-12-19T00:08:37;99333.72;;;-9.50;100.00
69848;BME280;57143;55.940;37.496;2022-12-19T00:11:04;99336.47;;;-9.39;100.00
69848;BME280;57143;55.940;37.496;2022-12-19T00:13:32;99269.91;;;-9.76;100.00
69848;BME280;57143;55.940;37.496;2022-12-19T00:16:03;99328.19;;;-9.33;100.00
69848;BME280;57143;55.940;37.496;2022-12-19T00:18:30;99315.91;;;-9.32;100.00
69848;BME280;57143;55.940;37.496;2022-12-19T00:21:02;99254.50;;;-9.68;100.00
69848;BME280;57143;55.940;37.496;2022-12-19T00:23:32;99294.06;;;-9.45;100.00
69848;BME280;57143;55.940;37.496;2022-12-19T00:26:07;99330.41;;;-9.27;100.00
69848;BME280;57143;55.940;37.496;2022-12-19T00:28:35;99335.97;;;-9.19;100.00
69848;BME280;57143;55.940;37.496;2022-12-19T00:31:02;99316.97;;;-9.10;100.00
69848;BME280;57143;55.940;37.496;2022-12-19T00:33:30;99344.59;;;-9.17;100.00
69848;BME280;57143;55.940;37.496;2022-12-19T00:36:00;99308.06;;;-9.20;100.00
69848;BME280;57143;55.940;37.496;2022-12-19T00:38:28;99299.97;;;-9.17;100.00
69848;BME280;57143;55.940;37.496;2022-12-19T00:41:05;99283.28;;;-9.28;100.00
69848;BME280;57143;55.940;37.496;2022-12-19T00:43:32;99310.25;;;-9.01;100.00
69848;BME280;57143;55.940;37.496;2022-12-19T00:46:01;99305.63;;;-9.10;100.00
69848;BME280;57143;55.940;37.496;2022-12-19T00:48:29;99305.31;;;-9.06;100.00
69848;BME280;57143;55.940;37.496;2022-12-19T00:50:59;99309.84;;;-9.08;100.00
69848;BME280;57143;55.940;37.496;2022-12-19T00:53:27;99317.19;;;-9.13;100.00
69848;BME280;57143;55.940;37.496;2022-12-19T00:55:55;99310.25;;;-9.14;100.00
69848;BME280;57143;55.940;37.496;2022-12-19T00:58:22;99301.63;;;-9.16;100.00
69848;BME280;57143;55.940;37.496;2022-12-19T01:00:49;99299.00;;;-9.16;100.00
69848;BME280;57143;55.940;37.496;2022-12-19T01:03:16;99250.31;;;-9.32;100.00
69848;BME280;57143;55.940;37.496;2022-12-19T01:05:43;99292.94;;;-9.16;100.00
69848;BME280;57143;55.940;37.496;2022-12-19T01:08:12;99276.34;;;-9.17;100.00
69848;BME280;57143;55.940;37.496;2022-12-19T01:10:44;99275.72;;;-9.08;100.00
69848;BME280;57143;55.940;37.496;2022-12-19T01:13:11;99280.34;;;-9.11;100.00
69848;BME280;57143;55.940;37.496;2022-12-19T01:15:38;99272.44;;;-8.99;100.00
69848;BME280;57143;55.940;37.496;2022-12-19T01:18:06;99264.06;;;-9.04;100.00
69848;BME280;57143;55.940;37.496;2022-12-19T01:20:37;99252.22;;;-9.09;100.00
69848;BME280;57143;55.940;37.496;2022-12-19T01:23:05;99248.97;;;-9.13;100.00
69848;BME280;57143;55.940;37.496;2022-12-19T01:25:34;99265.72;;;-8.90;100.00
69848;BME280;57143;55.940;37.496;2022-12-19T01:28:01;99276.53;;;-8.82;100.00
69848;BME280;57143;55.940;37.496;2022-12-19T01:30:28;99265.44;;;-8.98;100.00
69848;BME280;57143;55.940;37.496;2022-12-19T01:32:56;99268.16;;;-8.87;100.00
69848;BME280;57143;55.940;37.496;2022-12-19T01:35:24;99252.41;;;-9.00;100.00
69848;BME280;57143;55.940;37.496;2022-12-19T01:37:53;99249.88;;;-8.89;100.00
69848;BME280;57143;55.940;37.496;2022-12-19T01:40:20;99260.78;;;-8.82;100.00
69848;BME280;57143;55.940;37.496;2022-12-19T01:42:49;99259.19;;;-8.72;100.00
69848;BME280;57143;55.940;37.496;2022-12-19T01:45:25;99221.41;;;-8.82;100.00
69848;BME280;57143;55.940;37.496;2022-12-19T01:47:54;99234.53;;;-8.82;100.00
69848;BME280;57143;55.940;37.496;2022-12-19T01:50:26;99225.47;;;-8.78;100.00
69848;BME280;57143;55.940;37.496;2022-12-19T01:52:56;99233.78;;;-8.72;100.00
69848;BME280;57143;55.940;37.496;2022-12-19T01:55:24;99210.44;;;-8.76;100.00
69848;BME280;57143;55.940;37.496;2022-12-19T01:57:54;99220.22;;;-8.78;100.00
69848;BME280;57143;55.940;37.496;2022-12-19T02:00:22;99203.00;;;-8.70;100.00
69848;BME280;57143;55.940;37.496;2022-12-19T02:02:53;99203.28;;;-8.62;100.00
69848;BME280;57143;55.940;37.496;2022-12-19T02:05:22;99199.81;;;-8.62;100.00
69848;BME280;57143;55.940;37.496;2022-12-19T02:07:50;99194.63;;;-8.51;100.00
69848;BME280;57143;55.940;37.496;2022-12-19T02:10:18;99195.38;;;-8.49;100.00
69848;BME280;57143;55.940;37.496;2022-12-19T02:12:46;99175.97;;;-8.36;100.00
69848;BME280;57143;55.940;37.496;2022-12-19T02:15:15;99184.34;;;-8.30;100.00
69848;BME280;57143;55.940;37.496;2022-12-19T02:17:55;99128.00;;;-8.74;100.00
69848;BME280;57143;55.940;37.496;2022-12-19T02:23:58;99159.94;;;-7.98;100.00
69848;BME280;57143;55.940;37.496;2022-12-19T02:26:47;99089.97;;;-8.33;100.00
69848;BME280;57143;55.940;37.496;2022-12-19T02:29:42;99130.81;;;-7.84;100.00
69848;BME280;57143;55.940;37.496;2022-12-19T02:32:18;99060.94;;;-8.21;100.00
69848;BME280;57143;55.940;37.496;2022-12-19T02:34:53;99067.94;;;-7.98;100.00
69848;BME280;57143;55.940;37.496;2022-12-19T02:37:26;99116.25;;;-7.77;100.00
69848;BME280;57143;55.940;37.496;2022-12-19T02:39:57;99086.09;;;-7.73;100.00
69848;BME280;57143;55.940;37.496;2022-12-19T02:42:27;99093.75;;;-7.81;100.00
69848;BME280;57143;55.940;37.496;2022-12-19T02:44:56;99082.06;;;-7.77;100.00
69848;BME280;57143;55.940;37.496;2022-12-19T02:47:26;99092.56;;;-7.77;100.00
69848;BME280;57143;55.940;37.496;2022-12-19T02:49:54;99083.72;;;-7.87;100.00
69848;BME280;57143;55.940;37.496;2022-12-19T02:52:41;99109.09;;;-7.75;100.00
69848;BME280;57143;55.940;37.496;2022-12-19T02:55:11;99092.19;;;-7.83;100.00
69848;BME280;57143;55.940;37.496;2022-12-19T02:57:51;99065.53;;;-8.01;100.00
69848;BME280;57143;55.940;37.496;2022-12-19T03:00:21;99101.28;;;-7.87;100.00
69848;BME280;57143;55.940;37.496;2022-12-19T03:02:54;99111.44;;;-7.83;100.00
69848;BME280;57143;55.940;37.496;2022-12-19T03:05:30;99089.81;;;-7.86;100.00
69848;BME280;57143;55.940;37.496;2022-12-19T03:08:04;99084.91;;;-7.91;100.00
69848;BME280;57143;55.940;37.496;2022-12-19T03:10:36;98985.47;;;-8.41;100.00
69848;BME280;57143;55.940;37.496;2022-12-19T03:13:08;99069.38;;;-7.83;100.00
69848;BME280;57143;55.940;37.496;2022-12-19T03:15:38;99080.97;;;-7.74;100.00
69848;BME280;57143;55.940;37.496;2022-12-19T03:18:08;99073.19;;;-7.76;100.00
69848;BME280;57143;55.940;37.496;2022-12-19T03:20:42;99063.16;;;-7.71;100.00
69848;BME280;57143;55.940;37.496;2022-12-19T03:23:12;99072.00;;;-7.72;100.00
69848;BME280;57143;55.940;37.496;2022-12-19T03:25:42;99081.81;;;-7.74;100.00
69848;BME280;57143;55.940;37.496;2022-12-19T03:28:11;99029.19;;;-8.07;100.00
69848;BME280;57143;55.940;37.496;2022-12-19T03:30:42;99081.47;;;-7.80;100.00
69848;BME280;57143;55.940;37.496;2022-12-19T03:33:15;99077.53;;;-7.75;100.00
69848;BME280;57143;55.940;37.496;2022-12-19T03:35:45;99065.31;;;-7.76;100.00
69848;BME280;57143;55.940;37.496;2022-12-19T03:38:17;99076.44;;;-7.61;100.00
69848;BME280;57143;55.940;37.496;2022-12-19T03:40:46;99065.19;;;-7.52;100.00
69848;BME280;57143;55.940;37.496;2022-12-19T03:43:16;99058.97;;;-7.62;100.00
69848;BME280;57143;55.940;37.496;2022-12-19T03:45:48;99035.53;;;-7.65;100.00
69848;BME280;57143;55.940;37.496;2022-12-19T03:48:21;99043.66;;;-7.57;100.00
69848;BME280;57143;55.940;37.496;2022-12-19T03:50:56;99043.91;;;-7.49;100.00
69848;BME280;57143;55.940;37.496;2022-12-19T03:53:36;99044.97;;;-7.41;100.00
69848;BME280;57143;55.940;37.496;2022-12-19T03:56:12;99014.59;;;-7.45;100.00
69848;BME280;57143;55.940;37.496;2022-12-19T03:58:47;99027.28;;;-7.50;100.00
69848;BME280;57143;55.940;37.496;2022-12-19T04:01:17;99013.91;;;-7.58;100.00
69848;BME280;57143;55.940;37.496;2022-12-19T04:03:47;99012.69;;;-7.54;100.00
69848;BME280;57143;55.940;37.496;2022-12-19T04:06:16;99004.78;;;-7.54;100.00
69848;BME280;57143;55.940;37.496;2022-12-19T04:08:43;99019.97;;;-7.46;100.00
69848;BME280;57143;55.940;37.496;2022-12-19T04:11:16;99035.16;;;-7.61;100.00
69848;BME280;57143;55.940;37.496;2022-12-19T04:13:48;99032.78;;;-7.86;100.00
69848;BME280;57143;55.940;37.496;2022-12-19T04:16:19;98983.53;;;-8.17;100.00
69848;BME280;57143;55.940;37.496;2022-12-19T04:18:54;99057.19;;;-7.84;100.00
69848;BME280;57143;55.940;37.496;2022-12-19T04:21:27;99032.09;;;-7.99;100.00
69848;BME280;57143;55.940;37.496;2022-12-19T04:24:01;99051.91;;;-7.95;100.00
69848;BME280;57143;55.940;37.496;2022-12-19T04:26:31;99059.06;;;-7.97;100.00
69848;BME280;57143;55.940;37.496;2022-12-19T04:29:01;99048.44;;;-7.95;100.00
69848;BME280;57143;55.940;37.496;2022-12-19T04:31:29;99053.00;;;-7.86;100.00
69848;BME280;57143;55.940;37.496;2022-12-19T04:33:58;99050.97;;;-7.83;100.00
69848;BME280;57143;55.940;37.496;2022-12-19T04:36:25;99050.25;;;-7.63;100.00
69848;BME280;57143;55.940;37.496;2022-12-19T04:38:52;99057.19;;;-7.62;100.00
69848;BME280;57143;55.940;37.496;2022-12-19T04:41:19;99044.03;;;-7.73;100.00
69848;BME280;57143;55.940;37.496;2022-12-19T04:43:46;99044.88;;;-7.61;100.00
69848;BME280;57143;55.940;37.496;2022-12-19T04:46:14;99049.06;;;-7.48;100.00
69848;BME280;57143;55.940;37.496;2022-12-19T04:48:41;99047.34;;;-7.49;100.00
69848;BME280;57143;55.940;37.496;2022-12-19T04:51:09;99041.41;;;-7.51;100.00
69848;BME280;57143;55.940;37.496;2022-12-19T04:53:36;99032.03;;;-7.33;100.00
69848;BME280;57143;55.940;37.496;2022-12-19T04:56:05;98980.91;;;-7.62;100.00
69848;BME280;57143;55.940;37.496;2022-12-19T04:58:33;99042.69;;;-7.34;100.00
69848;BME280;57143;55.940;37.496;2022-12-19T05:01:00;99056.69;;;-7.34;100.00
69848;BME280;57143;55.940;37.496;2022-12-19T05:03:28;99035.16;;;-7.39;100.00
69848;BME280;57143;55.940;37.496;2022-12-19T05:06:02;99029.78;;;-7.37;100.00
69848;BME280;57143;55.940;37.496;2022-12-19T05:08:31;99042.56;;;-7.33;100.00
69848;BME280;57143;55.940;37.496;2022-12-19T05:10:59;99048.81;;;-7.34;100.00
69848;BME280;57143;55.940;37.496;2022-12-19T05:13:26;98979.25;;;-7.63;100.00
69848;BME280;57143;55.940;37.496;2022-12-19T05:15:55;99030.47;;;-7.24;100.00
69848;BME280;57143;55.940;37.496;2022-12-19T05:18:23;99036.19;;;-7.19;100.00
69848;BME280;57143;55.940;37.496;2022-12-19T05:20:51;99018.50;;;-7.28;100.00
69848;BME280;57143;55.940;37.496;2022-12-19T05:23:18;99019.94;;;-7.24;100.00
69848;BME280;57143;55.940;37.496;2022-12-19T05:25:47;99034.88;;;-7.14;100.00
69848;BME280;57143;55.940;37.496;2022-12-19T05:28:15;99030.59;;;-7.15;100.00
69848;BME280;57143;55.940;37.496;2022-12-19T05:30:43;99015.78;;;-7.27;100.00
69848;BME280;57143;55.940;37.496;2022-12-19T05:33:10;99014.00;;;-7.05;100.00
69848;BME280;57143;55.940;37.496;2022-12-19T05:35:38;99035.84;;;-7.15;100.00
69848;BME280;57143;55.940;37.496;2022-12-19T05:38:05;99008.47;;;-7.23;100.00
69848;BME280;57143;55.940;37.496;2022-12-19T05:40:32;98988.88;;;-7.30;100.00
69848;BME280;57143;55.940;37.496;2022-12-19T05:43:01;99013.69;;;-7.12;100.00
69848;BME280;57143;55.940;37.496;2022-12-19T05:45:28;99021.22;;;-7.07;100.00
69848;BME280;57143;55.940;37.496;2022-12-19T05:47:55;98962.53;;;-7.30;100.00
69848;BME280;57143;55.940;37.496;2022-12-19T05:50:22;99002.09;;;-7.21;100.00
69848;BME280;57143;55.940;37.496;2022-12-19T05:52:49;99006.47;;;-6.99;100.00
69848;BME280;57143;55.940;37.496;2022-12-19T05:55:17;98982.81;;;-7.10;100.00
69848;BME280;57143;55.940;37.496;2022-12-19T05:57:44;99008.34;;;-6.90;100.00
69848;BME280;57143;55.940;37.496;2022-12-19T06:00:13;99010.19;;;-7.01;100.00
69848;BME280;57143;55.940;37.496;2022-12-19T06:02:41;99005.03;;;-6.92;100.00
69848;BME280;57143;55.940;37.496;2022-12-19T06:05:08;99011.09;;;-6.91;100.00
69848;BME280;57143;55.940;37.496;2022-12-19T06:07:35;98997.72;;;-6.99;100.00
69848;BME280;57143;55.940;37.496;2022-12-19T06:10:04;99019.72;;;-6.89;100.00
69848;BME280;57143;55.940;37.496;2022-12-19T06:12:31;99019.81;;;-6.80;100.00
69848;BME280;57143;55.940;37.496;2022-12-19T06:14:58;99020.16;;;-6.73;100.00
69848;BME280;57143;55.940;37.496;2022-12-19T06:17:27;99003.78;;;-6.88;100.00
69848;BME280;57143;55.940;37.496;2022-12-19T06:19:54;99016.91;;;-6.77;100.00
69848;BME280;57143;55.940;37.496;2022-12-19T06:22:21;99017.50;;;-6.73;100.00
69848;BME280;57143;55.940;37.496;2022-12-19T06:24:48;99022.91;;;-6.75;100.00
69848;BME280;57143;55.940;37.496;2022-12-19T06:27:15;99012.94;;;-6.71;100.00
69848;BME280;57143;55.940;37.496;2022-12-19T06:29:42;98997.63;;;-6.77;100.00
69848;BME280;57143;55.940;37.496;2022-12-19T06:32:09;99019.41;;;-6.64;100.00
69848;BME280;57143;55.940;37.496;2022-12-19T06:34:38;99012.03;;;-6.61;100.00
69848;BME280;57143;55.940;37.496;2022-12-19T06:37:05;99011.22;;;-6.61;100.00
69848;BME280;57143;55.940;37.496;2022-12-19T06:39:32;99021.06;;;-6.63;100.00
69848;BME280;57143;55.940;37.496;2022-12-19T06:41:59;99024.59;;;-6.53;100.00
69848;BME280;57143;55.940;37.496;2022-12-19T06:44:43;99014.81;;;-6.42;100.00
69848;BME280;57143;55.940;37.496;2022-12-19T06:47:11;99025.56;;;-6.54;100.00
69848;BME280;57143;55.940;37.496;2022-12-19T06:49:39;99016.06;;;-6.46;100.00
69848;BME280;57143;55.940;37.496;2022-12-19T06:52:06;99007.03;;;-6.43;100.00
69848;BME280;57143;55.940;37.496;2022-12-19T06:54:33;98990.72;;;-6.37;100.00
69848;BME280;57143;55.940;37.496;2022-12-19T06:57:00;98982.28;;;-6.31;100.00
69848;BME280;57143;55.940;37.496;2022-12-19T06:59:28;98968.47;;;-6.24;100.00
69848;BME280;57143;55.940;37.496;2022-12-19T07:01:57;98962.56;;;-6.16;100.00
69848;BME280;57143;55.940;37.496;2022-12-19T07:04:28;98951.03;;;-6.15;100.00
69848;BME280;57143;55.940;37.496;2022-12-19T07:06:58;98921.94;;;-6.34;100.00
69848;BME280;57143;55.940;37.496;2022-12-19T07:09:26;98978.94;;;-6.13;100.00
69848;BME280;57143;55.940;37.496;2022-12-19T07:11:54;98992.44;;;-6.06;100.00
69848;BME280;57143;55.940;37.496;2022-12-19T07:14:22;98988.56;;;-6.02;100.00
69848;BME280;57143;55.940;37.496;2022-12-19T07:16:50;98967.84;;;-6.07;100.00
69848;BME280;57143;55.940;37.496;2022-12-19T07:19:19;98932.34;;;-6.33;100.00
69848;BME280;57143;55.940;37.496;2022-12-19T07:21:47;98988.31;;;-5.99;100.00
69848;BME280;57143;55.940;37.496;2022-12-19T07:24:16;98991.41;;;-5.84;100.00
69848;BME280;57143;55.940;37.496;2022-12-19T07:26:44;98978.06;;;-5.93;100.00
69848;BME280;57143;55.940;37.496;2022-12-19T07:29:11;98976.13;;;-5.81;100.00
69848;BME280;57143;55.940;37.496;2022-12-19T07:31:39;98953.78;;;-5.86;100.00
69848;BME280;57143;55.940;37.496;2022-12-19T07:34:06;98990.75;;;-5.67;100.00
69848;BME280;57143;55.940;37.496;2022-12-19T07:36:34;98985.22;;;-5.64;100.00
69848;BME280;57143;55.940;37.496;2022-12-19T07:39:02;98993.66;;;-5.70;100.00
69848;BME280;57143;55.940;37.496;2022-12-19T07:41:30;98987.69;;;-5.72;100.00
69848;BME280;57143;55.940;37.496;2022-12-19T07:43:58;98989.25;;;-5.70;100.00
69848;BME280;57143;55.940;37.496;2022-12-19T07:46:27;98980.97;;;-5.56;100.00
69848;BME280;57143;55.940;37.496;2022-12-19T07:48:54;98972.19;;;-5.47;100.00
69848;BME280;57143;55.940;37.496;2022-12-19T07:51:21;98929.41;;;-5.60;100.00
69848;BME280;57143;55.940;37.496;2022-12-19T07:53:49;98983.75;;;-5.38;100.00
69848;BME280;57143;55.940;37.496;2022-12-19T07:56:16;98971.97;;;-5.34;100.00
69848;BME280;57143;55.940;37.496;2022-12-19T07:58:44;98960.41;;;-5.52;100.00
69848;BME280;57143;55.940;37.496;2022-12-19T08:01:11;98995.72;;;-5.34;100.00
69848;BME280;57143;55.940;37.496;2022-12-19T08:03:38;98983.75;;;-5.38;100.00
69848;BME280;57143;55.940;37.496;2022-12-19T08:06:06;98990.88;;;-5.29;100.00
69848;BME280;57143;55.940;37.496;2022-12-19T08:08:34;98989.19;;;-5.40;100.00
69848;BME280;57143;55.940;37.496;2022-12-19T08:11:06;98988.09;;;-5.37;100.00
69848;BME280;57143;55.940;37.496;2022-12-19T08:13:33;98992.38;;;-5.36;100.00
69848;BME280;57143;55.940;37.496;2022-12-19T08:16:02;98981.56;;;-5.33;100.00
69848;BME280;57143;55.940;37.496;2022-12-19T08:18:30;98981.00;;;-5.27;100.00
69848;BME280;57143;55.940;37.496;2022-12-19T08:20:57;98976.00;;;-5.21;100.00
69848;BME280;57143;55.940;37.496;2022-12-19T08:23:24;98967.28;;;-5.21;100.00
69848;BME280;57143;55.940;37.496;2022-12-19T08:25:58;98955.97;;;-5.33;100.00
69848;BME280;57143;55.940;37.496;2022-12-19T08:28:26;98962.56;;;-5.08;100.00
69848;BME280;57143;55.940;37.496;2022-12-19T08:30:53;98936.53;;;-5.22;100.00
69848;BME280;57143;55.940;37.496;2022-12-19T08:33:22;98946.00;;;-4.91;100.00
69848;BME280;57143;55.940;37.496;2022-12-19T08:35:49;98932.94;;;-4.93;100.00
69848;BME280;57143;55.940;37.496;2022-12-19T08:38:16;98939.06;;;-4.92;100.00
69848;BME280;57143;55.940;37.496;2022-12-19T08:40:43;98929.47;;;-4.84;100.00
69848;BME280;57143;55.940;37.496;2022-12-19T08:43:10;98936.00;;;-4.68;100.00
69848;BME280;57143;55.940;37.496;2022-12-19T08:45:38;98919.72;;;-4.83;100.00
69848;BME280;57143;55.940;37.496;2022-12-19T08:48:05;98914.03;;;-4.79;100.00
69848;BME280;57143;55.940;37.496;2022-12-19T08:50:34;98943.50;;;-4.74;100.00
69848;BME280;57143;55.940;37.496;2022-12-19T08:53:01;98946.84;;;-4.91;100.00
69848;BME280;57143;55.940;37.496;2022-12-19T08:55:28;98945.34;;;-4.84;100.00
69848;BME280;57143;55.940;37.496;2022-12-19T08:57:56;98938.78;;;-4.80;100.00
69848;BME280;57143;55.940;37.496;2022-12-19T09:00:23;98947.13;;;-4.84;100.00
69848;BME280;57143;55.940;37.496;2022-12-19T09:02:50;98940.84;;;-4.83;100.00
69848;BME280;57143;55.940;37.496;2022-12-19T09:05:17;98930.59;;;-4.77;100.00
69848;BME280;57143;55.940;37.496;2022-12-19T09:07:46;98933.22;;;-4.67;100.00
69848;BME280;57143;55.940;37.496;2022-12-19T09:10:13;98937.53;;;-4.66;100.00
69848;BME280;57143;55.940;37.496;2022-12-19T09:12:40;98934.59;;;-4.63;100.00
69848;BME280;57143;55.940;37.496;2022-12-19T09:15:07;98912.09;;;-4.77;100.00
69848;BME280;57143;55.940;37.496;2022-12-19T09:17:35;98928.19;;;-4.60;100.00
69848;BME280;57143;55.940;37.496;2022-12-19T09:20:02;98928.59;;;-4.55;100.00
69848;BME280;57143;55.940;37.496;2022-12-19T09:22:30;98923.03;;;-4.52;100.00
69848;BME280;57143;55.940;37.496;2022-12-19T09:24:58;98920.63;;;-4.36;100.00
69848;BME280;57143;55.940;37.496;2022-12-19T09:27:25;98914.66;;;-4.48;100.00
69848;BME280;57143;55.940;37.496;2022-12-19T09:29:52;98923.56;;;-4.30;100.00
69848;BME280;57143;55.940;37.496;2022-12-19T09:32:19;98928.41;;;-4.25;100.00
69848;BME280;57143;55.940;37.496;2022-12-19T09:34:46;98926.03;;;-4.28;100.00
69848;BME280;57143;55.940;37.496;2022-12-19T09:37:14;98899.19;;;-4.33;100.00
69848;BME280;57143;55.940;37.496;2022-12-19T09:39:41;98933.72;;;-4.35;100.00
69848;BME280;57143;55.940;37.496;2022-12-19T09:42:24;98921.50;;;-4.55;100.00
69848;BME280;57143;55.940;37.496;2022-12-19T09:45:18;98938.72;;;-4.41;100.00
69848;BME280;57143;55.940;37.496;2022-12-19T09:47:54;98903.56;;;-4.61;100.00
69848;BME280;57143;55.940;37.496;2022-12-19T09:50:29;98874.75;;;-4.64;100.00
69848;BME280;57143;55.940;37.496;2022-12-19T09:53:02;98929.78;;;-4.31;100.00
69848;BME280;57143;55.940;37.496;2022-12-19T09:55:32;98931.03;;;-4.25;100.00
69848;BME280;57143;55.940;37.496;2022-12-19T09:58:06;98914.47;;;-4.27;100.00
69848;BME280;57143;55.940;37.496;2022-12-19T10:00:38;98894.91;;;-4.44;100.00
69848;BME280;57143;55.940;37.496;2022-12-19T10:03:13;98899.00;;;-4.22;100.00
69848;BME280;57143;55.940;37.496;2022-12-19T10:05:45;98919.88;;;-4.19;100.00
69848;BME280;57143;55.940;37.496;2022-12-19T10:08:17;98858.44;;;-4.40;100.00
69848;BME280;57143;55.940;37.496;2022-12-19T10:10:58;98923.50;;;-4.20;100.00
69848;BME280;57143;55.940;37.496;2022-12-19T10:13:35;98918.50;;;-4.23;100.00
69848;BME280;57143;55.940;37.496;2022-12-19T10:16:14;98894.31;;;-4.28;100.00
69848;BME280;57143;55.940;37.496;2022-12-19T10:18:50;98921.25;;;-4.15;100.00
69848;BME280;57143;55.940;37.496;2022-12-19T10:21:27;98885.03;;;-4.42;100.00
69848;BME280;57143;55.940;37.496;2022-12-19T10:24:22;98912.97;;;-4.30;100.00
69848;BME280;57143;55.940;37.496;2022-12-19T10:26:58;98855.81;;;-4.50;100.00
69848;BME280;57143;55.940;37.496;2022-12-19T10:29:54;98907.72;;;-4.12;100.00
69848;BME280;57143;55.940;37.496;2022-12-19T10:32:33;98899.22;;;-4.06;100.00
69848;BME280;57143;55.940;37.496;2022-12-19T10:35:11;98890.75;;;-4.10;100.00
69848;BME280;57143;55.940;37.496;2022-12-19T10:37:45;98905.31;;;-3.96;100.00
69848;BME280;57143;55.940;37.496;2022-12-19T10:40:22;98899.69;;;-4.11;100.00
69848;BME280;57143;55.940;37.496;2022-12-19T10:42:53;98864.31;;;-4.19;100.00
69848;BME280;57143;55.940;37.496;2022-12-19T10:45:23;98910.22;;;-4.01;100.00
69848;BME280;57143;55.940;37.496;2022-12-19T10:47:55;98890.75;;;-3.83;100.00
69848;BME280;57143;55.940;37.496;2022-12-19T10:50:25;98891.28;;;-3.79;100.00
69848;BME280;57143;55.940;37.496;2022-12-19T10:52:54;98892.44;;;-3.82;100.00
69848;BME280;57143;55.940;37.496;2022-12-19T10:55:39;98894.25;;;-3.82;100.00
69848;BME280;57143;55.940;37.496;2022-12-19T10:58:17;98888.03;;;-3.91;100.00
69848;BME280;57143;55.940;37.496;2022-12-19T11:01:02;98903.44;;;-3.86;100.00
69848;BME280;57143;55.940;37.496;2022-12-19T11:03:31;98911.25;;;-3.85;100.00
69848;BME280;57143;55.940;37.496;2022-12-19T11:06:00;98908.91;;;-3.88;100.00
69848;BME280;57143;55.940;37.496;2022-12-19T11:08:30;98916.53;;;-3.85;100.00
69848;BME280;57143;55.940;37.496;2022-12-19T11:11:10;98899.78;;;-3.76;100.00
69848;BME280;57143;55.940;37.496;2022-12-19T11:13:40;98914.81;;;-3.76;100.00
69848;BME280;57143;55.940;37.496;2022-12-19T11:16:11;98900.47;;;-3.74;100.00
69848;BME280;57143;55.940;37.496;2022-12-19T11:18:40;98901.31;;;-3.73;100.00
69848;BME280;57143;55.940;37.496;2022-12-19T11:21:16;98901.78;;;-3.87;100.00
69848;BME280;57143;55.940;37.496;2022-12-19T11:23:48;98847.00;;;-4.04;100.00
69848;BME280;57143;55.940;37.496;2022-12-19T11:26:30;98884.78;;;-3.85;100.00
69848;BME280;57143;55.940;37.496;2022-12-19T11:29:02;98891.88;;;-3.58;100.00
69848;BME280;57143;55.940;37.496;2022-12-19T11:31:34;98893.44;;;-3.65;100.00
69848;BME280;57143;55.940;37.496;2022-12-19T11:34:14;98854.13;;;-3.60;100.00
69848;BME280;57143;55.940;37.496;2022-12-19T11:36:46;98816.94;;;-3.86;100.00
69848;BME280;57143;55.940;37.496;2022-12-19T11:39:19;98829.31;;;-3.59;100.00
69848;BME280;57143;55.940;37.496;2022-12-19T11:41:51;98857.09;;;-3.45;100.00
69848;BME280;57143;55.940;37.496;2022-12-19T11:44:28;98858.06;;;-3.46;100.00
69848;BME280;57143;55.940;37.496;2022-12-19T11:47:01;98842.09;;;-3.55;100.00
69848;BME280;57143;55.940;37.496;2022-12-19T11:49:35;98848.69;;;-3.41;100.00
69848;BME280;57143;55.940;37.496;2022-12-19T11:52:09;98818.97;;;-3.53;100.00
69848;BME280;57143;55.940;37.496;2022-12-19T11:54:47;98835.28;;;-3.39;100.00
69848;BME280;57143;55.940;37.496;2022-12-19T11:57:16;98851.72;;;-3.36;100.00
69848;BME280;57143;55.940;37.496;2022-12-19T11:59:44;98873.97;;;-3.29;100.00
69848;BME280;57143;55.940;37.496;2022-12-19T12:02:29;98847.94;;;-3.33;100.00
69848;BME280;57143;55.940;37.496;2022-12-19T12:05:23;98854.00;;;-3.23;100.00
69848;BME280;57143;55.940;37.496;2022-12-19T12:08:04;98866.03;;;-3.29;100.00
69848;BME280;57143;55.940;37.496;2022-12-19T12:10:47;98850.34;;;-3.22;100.00
69848;BME280;57143;55.940;37.496;2022-12-19T12:13:27;98868.53;;;-3.27;100.00
69848;BME280;57143;55.940;37.496;2022-12-19T12:16:02;98829.19;;;-3.58;100.00
69848;BME280;57143;55.940;37.496;2022-12-19T12:18:44;98875.41;;;-3.34;100.00
69848;BME280;57143;55.940;37.496;2022-12-19T12:21:22;98873.81;;;-3.27;100.00
69848;BME280;57143;55.940;37.496;2022-12-19T12:24:02;98878.31;;;-3.28;100.00
69848;BME280;57143;55.940;37.496;2022-12-19T12:26:36;98881.25;;;-3.31;100.00
69848;BME280;57143;55.940;37.496;2022-12-19T12:29:15;98884.13;;;-3.24;100.00
69848;BME280;57143;55.940;37.496;2022-12-19T12:31:52;98854.72;;;-3.48;100.00
69848;BME280;57143;55.940;37.496;2022-12-19T12:34:48;98897.09;;;-3.21;100.00
69848;BME280;57143;55.940;37.496;2022-12-19T12:37:30;98887.06;;;-3.27;100.00
69848;BME280;57143;55.940;37.496;2022-12-19T12:40:15;98870.56;;;-3.39;100.00
69848;BME280;57143;55.940;37.496;2022-12-19T12:42:52;98903.72;;;-3.17;100.00
69848;BME280;57143;55.940;37.496;2022-12-19T12:45:26;98909.72;;;-3.15;100.00
69848;BME280;57143;55.940;37.496;2022-12-19T12:47:57;98910.41;;;-3.13;100.00
69848;BME280;57143;55.940;37.496;2022-12-19T12:50:24;98918.97;;;-3.19;100.00
69848;BME280;57143;55.940;37.496;2022-12-19T12:52:57;98904.78;;;-3.10;100.00
69848;BME280;57143;55.940;37.496;2022-12-19T12:55:28;98903.34;;;-3.05;100.00
69848;BME280;57143;55.940;37.496;2022-12-19T12:57:57;98898.00;;;-3.13;100.00
69848;BME280;57143;55.940;37.496;2022-12-19T13:00:27;98904.56;;;-2.99;100.00
69848;BME280;57143;55.940;37.496;2022-12-19T13:03:01;98908.06;;;-2.99;100.00